sensor_id;sensor_type;location;lat;lon;timestamp;pressure;altitude;pressure_sealevel;temperature;humidity
73106;BME280;61559;50.476;15.588;2023-04-16T00:00:40;97313.35;;;3.08;84.26
73106;BME280;61559;50.476;15.588;2023-04-16T00:03:31;97312.54;;;3.08;84.30
73106;BME280;61559;50.476;15.588;2023-04-16T00:06:03;97309.28;;;3.07;84.40
73106;BME280;61559;50.476;15.588;2023-04-16T00:08:35;97313.00;;;3.06;84.52
73106;BME280;61559;50.476;15.588;2023-04-16T00:11:04;97310.96;;;3.07;84.57
73106;BME280;61559;50.476;15.588;2023-04-16T00:13:36;97309.29;;;3.05;84.49
73106;BME280;61559;50.476;15.588;2023-04-16T00:16:08;97306.65;;;3.05;84.58
73106;BME280;61559;50.476;15.588;2023-04-16T00:18:39;97307.32;;;3.04;84.48
73106;BME280;61559;50.476;15.588;2023-04-16T00:21:10;97311.95;;;3.04;84.51
73106;BME280;61559;50.476;15.588;2023-04-16T00:23:42;97314.09;;;3.03;84.61
73106;BME280;61559;50.476;15.588;2023-04-16T00:26:14;97315.42;;;3.02;84.67
73106;BME280;61559;50.476;15.588;2023-04-16T00:28:46;97319.27;;;3.02;84.76
73106;BME280;61559;50.476;15.588;2023-04-16T00:31:17;97320.09;;;3.03;84.80
73106;BME280;61559;50.476;15.588;2023-04-16T00:33:47;97319.83;;;3.06;84.88
73106;BME280;61559;50.476;15.588;2023-04-16T00:36:18;97325.82;;;3.07;85.06
73106;BME280;61559;50.476;15.588;2023-04-16T00:38:49;97322.54;;;3.11;85.03
73106;BME280;61559;50.476;15.588;2023-04-16T00:41:21;97325.02;;;3.14;84.84
73106;BME280;61559;50.476;15.588;2023-04-16T00:43:53;97319.11;;;3.16;84.90
73106;BME280;61559;50.476;15.588;2023-04-16T00:46:24;97323.16;;;3.19;84.86
73106;BME280;61559;50.476;15.588;2023-04-16T00:48:56;97318.38;;;3.21;84.69
73106;BME280;61559;50.476;15.588;2023-04-16T00:51:27;97319.27;;;3.21;84.54
73106;BME280;61559;50.476;15.588;2023-04-16T00:53:59;97322.29;;;3.22;84.43
73106;BME280;61559;50.476;15.588;2023-04-16T00:56:30;97316.80;;;3.20;84.37
73106;BME280;61559;50.476;15.588;2023-04-16T00:59:01;97324.88;;;3.23;84.13
73106;BME280;61559;50.476;15.588;2023-04-16T01:01:33;97328.04;;;3.23;84.25
73106;BME280;61559;50.476;15.588;2023-04-16T01:04:05;97326.45;;;3.22;84.25
73106;BME280;61559;50.476;15.588;2023-04-16T01:06:36;97329.02;;;3.19;84.16
73106;BME280;61559;50.476;15.588;2023-04-16T01:09:08;97322.64;;;3.13;84.36
73106;BME280;61559;50.476;15.588;2023-04-16T01:11:40;97325.10;;;3.09;84.37
73106;BME280;61559;50.476;15.588;2023-04-16T01:14:11;97323.59;;;3.06;84.45
73106;BME280;61559;50.476;15.588;2023-04-16T01:16:42;97321.71;;;3.03;84.37
73106;BME280;61559;50.476;15.588;2023-04-16T01:19:13;97321.06;;;3.01;84.51
73106;BME280;61559;50.476;15.588;2023-04-16T01:21:43;97323.20;;;3.00;84.52
73106;BME280;61559;50.476;15.588;2023-04-16T01:24:14;97319.50;;;2.96;84.64
73106;BME280;61559;50.476;15.588;2023-04-16T01:26:45;97314.61;;;2.97;84.76
73106;BME280;61559;50.476;15.588;2023-04-16T01:29:16;97311.11;;;2.95;84.82
73106;BME280;61559;50.476;15.588;2023-04-16T01:31:47;97317.58;;;2.95;84.89
73106;BME280;61559;50.476;15.588;2023-04-16T01:34:18;97321.04;;;2.92;84.95
73106;BME280;61559;50.476;15.588;2023-04-16T01:36:49;97320.02;;;2.93;85.07
73106;BME280;61559;50.476;15.588;2023-04-16T01:39:20;97318.65;;;2.94;85.00
73106;BME280;61559;50.476;15.588;2023-04-16T01:41:51;97320.67;;;2.97;84.89
73106;BME280;61559;50.476;15.588;2023-04-16T01:44:23;97320.77;;;2.98;84.65
73106;BME280;61559;50.476;15.588;2023-04-16T01:46:52;97324.44;;;2.97;84.64
73106;BME280;61559;50.476;15.588;2023-04-16T01:49:23;97323.48;;;2.95;84.59
73106;BME280;61559;50.476;15.588;2023-04-16T01:51:53;97325.71;;;2.94;84.56
73106;BME280;61559;50.476;15.588;2023-04-16T01:54:24;97324.77;;;2.89;84.46
73106;BME280;61559;50.476;15.588;2023-04-16T01:56:54;97328.39;;;2.86;84.67
73106;BME280;61559;50.476;15.588;2023-04-16T01:59:24;97325.87;;;2.81;84.69
73106;BME280;61559;50.476;15.588;2023-04-16T02:01:55;97328.38;;;2.77;84.62
73106;BME280;61559;50.476;15.588;2023-04-16T02:04:27;97329.30;;;2.74;84.51
73106;BME280;61559;50.476;15.588;2023-04-16T02:06:58;97329.36;;;2.70;84.32
73106;BME280;61559;50.476;15.588;2023-04-16T02:09:29;97327.67;;;2.59;84.39
73106;BME280;61559;50.476;15.588;2023-04-16T02:12:00;97332.54;;;2.52;84.67
73106;BME280;61559;50.476;15.588;2023-04-16T02:14:32;97335.44;;;2.48;84.84
73106;BME280;61559;50.476;15.588;2023-04-16T02:17:04;97333.27;;;2.46;84.77
73106;BME280;61559;50.476;15.588;2023-04-16T02:19:35;97337.73;;;2.45;84.79
73106;BME280;61559;50.476;15.588;2023-04-16T02:22:06;97334.64;;;2.45;84.61
73106;BME280;61559;50.476;15.588;2023-04-16T02:24:37;97337.44;;;2.44;84.52
73106;BME280;61559;50.476;15.588;2023-04-16T02:27:08;97341.45;;;2.43;84.59
73106;BME280;61559;50.476;15.588;2023-04-16T02:29:39;97344.75;;;2.45;84.54
73106;BME280;61559;50.476;15.588;2023-04-16T02:32:11;97345.62;;;2.44;84.59
73106;BME280;61559;50.476;15.588;2023-04-16T02:34:42;97351.66;;;2.43;84.97
73106;BME280;61559;50.476;15.588;2023-04-16T02:37:13;97349.13;;;2.41;85.03
73106;BME280;61559;50.476;15.588;2023-04-16T02:39:45;97350.80;;;2.43;85.38
73106;BME280;61559;50.476;15.588;2023-04-16T02:42:18;97356.95;;;2.46;85.71
73106;BME280;61559;50.476;15.588;2023-04-16T02:44:49;97352.92;;;2.50;85.74
73106;BME280;61559;50.476;15.588;2023-04-16T02:47:20;97354.08;;;2.56;85.85
73106;BME280;61559;50.476;15.588;2023-04-16T02:49:52;97356.70;;;2.61;86.08
73106;BME280;61559;50.476;15.588;2023-04-16T02:52:23;97355.45;;;2.67;86.11
73106;BME280;61559;50.476;15.588;2023-04-16T02:54:53;97357.58;;;2.72;86.11
73106;BME280;61559;50.476;15.588;2023-04-16T02:57:24;97357.88;;;2.73;86.00
73106;BME280;61559;50.476;15.588;2023-04-16T02:59:57;97359.35;;;2.73;86.12
73106;BME280;61559;50.476;15.588;2023-04-16T03:02:29;97357.58;;;2.73;86.20
73106;BME280;61559;50.476;15.588;2023-04-16T03:05:00;97358.84;;;2.76;86.40
73106;BME280;61559;50.476;15.588;2023-04-16T03:07:31;97361.06;;;2.80;86.49
73106;BME280;61559;50.476;15.588;2023-04-16T03:10:03;97363.65;;;2.86;86.69
73106;BME280;61559;50.476;15.588;2023-04-16T03:12:34;97363.42;;;2.92;86.76
73106;BME280;61559;50.476;15.588;2023-04-16T03:15:04;97359.98;;;2.99;86.89
73106;BME280;61559;50.476;15.588;2023-04-16T03:17:35;97362.72;;;3.04;86.94
73106;BME280;61559;50.476;15.588;2023-04-16T03:20:09;97366.97;;;3.11;86.69
73106;BME280;61559;50.476;15.588;2023-04-16T03:22:40;97365.62;;;3.17;86.73
73106;BME280;61559;50.476;15.588;2023-04-16T03:25:10;97369.00;;;3.24;86.70
73106;BME280;61559;50.476;15.588;2023-04-16T03:27:41;97371.93;;;3.29;86.69
73106;BME280;61559;50.476;15.588;2023-04-16T03:30:13;97374.96;;;3.34;86.69
73106;BME280;61559;50.476;15.588;2023-04-16T03:32:45;97370.92;;;3.39;86.64
73106;BME280;61559;50.476;15.588;2023-04-16T03:35:16;97374.11;;;3.42;86.51
73106;BME280;61559;50.476;15.588;2023-04-16T03:37:48;97374.92;;;3.42;86.51
73106;BME280;61559;50.476;15.588;2023-04-16T03:40:19;97374.56;;;3.43;86.52
73106;BME280;61559;50.476;15.588;2023-04-16T03:42:50;97373.80;;;3.44;86.63
73106;BME280;61559;50.476;15.588;2023-04-16T03:45:21;97377.63;;;3.47;86.66
73106;BME280;61559;50.476;15.588;2023-04-16T03:47:52;97384.11;;;3.52;86.54
73106;BME280;61559;50.476;15.588;2023-04-16T03:50:23;97388.87;;;3.57;86.60
73106;BME280;61559;50.476;15.588;2023-04-16T03:52:55;97388.91;;;3.60;86.45
73106;BME280;61559;50.476;15.588;2023-04-16T03:55:26;97395.86;;;3.65;86.47
73106;BME280;61559;50.476;15.588;2023-04-16T03:57:58;97402.01;;;3.67;86.33
73106;BME280;61559;50.476;15.588;2023-04-16T04:00:32;97407.54;;;3.70;86.31
73106;BME280;61559;50.476;15.588;2023-04-16T04:03:03;97410.33;;;3.73;86.25
73106;BME280;61559;50.476;15.588;2023-04-16T04:05:37;97413.11;;;3.76;86.27
73106;BME280;61559;50.476;15.588;2023-04-16T04:08:09;97417.17;;;3.79;86.24
73106;BME280;61559;50.476;15.588;2023-04-16T04:10:38;97423.38;;;3.79;86.21
73106;BME280;61559;50.476;15.588;2023-04-16T04:13:09;97428.94;;;3.78;86.28
73106;BME280;61559;50.476;15.588;2023-04-16T04:15:40;97435.30;;;3.80;86.33
73106;BME280;61559;50.476;15.588;2023-04-16T04:18:11;97443.80;;;3.82;86.32
73106;BME280;61559;50.476;15.588;2023-04-16T04:20:43;97448.33;;;3.83;86.25
73106;BME280;61559;50.476;15.588;2023-04-16T04:23:14;97450.35;;;3.85;86.34
73106;BME280;61559;50.476;15.588;2023-04-16T04:25:45;97456.91;;;3.88;86.33
73106;BME280;61559;50.476;15.588;2023-04-16T04:28:16;97459.34;;;3.92;86.34
73106;BME280;61559;50.476;15.588;2023-04-16T04:30:46;97461.35;;;3.96;86.32
73106;BME280;61559;50.476;15.588;2023-04-16T04:33:17;97466.39;;;3.97;86.44
73106;BME280;61559;50.476;15.588;2023-04-16T04:35:50;97466.73;;;4.01;86.44
73106;BME280;61559;50.476;15.588;2023-04-16T04:38:21;97469.96;;;4.04;86.37
73106;BME280;61559;50.476;15.588;2023-04-16T04:40:54;97473.97;;;4.08;86.34
73106;BME280;61559;50.476;15.588;2023-04-16T04:43:25;97478.43;;;4.12;86.35
73106;BME280;61559;50.476;15.588;2023-04-16T04:45:57;97484.42;;;4.16;86.43
73106;BME280;61559;50.476;15.588;2023-04-16T04:48:28;97487.70;;;4.20;86.48
73106;BME280;61559;50.476;15.588;2023-04-16T04:50:59;97490.03;;;4.24;86.51
73106;BME280;61559;50.476;15.588;2023-04-16T04:53:34;97489.55;;;4.27;86.51
73106;BME280;61559;50.476;15.588;2023-04-16T04:56:06;97489.68;;;4.31;86.52
73106;BME280;61559;50.476;15.588;2023-04-16T04:58:41;97488.76;;;4.32;86.35
73106;BME280;61559;50.476;15.588;2023-04-16T05:01:11;97491.67;;;4.34;86.35
73106;BME280;61559;50.476;15.588;2023-04-16T05:03:42;97493.95;;;4.33;86.34
73106;BME280;61559;50.476;15.588;2023-04-16T05:06:14;97496.60;;;4.35;86.43
73106;BME280;61559;50.476;15.588;2023-04-16T05:08:45;97499.39;;;4.38;86.50
73106;BME280;61559;50.476;15.588;2023-04-16T05:11:16;97501.35;;;4.43;86.61
73106;BME280;61559;50.476;15.588;2023-04-16T05:13:47;97502.17;;;4.49;86.68
73106;BME280;61559;50.476;15.588;2023-04-16T05:16:18;97506.27;;;4.54;86.64
73106;BME280;61559;50.476;15.588;2023-04-16T05:18:52;97509.40;;;4.59;86.64
73106;BME280;61559;50.476;15.588;2023-04-16T05:21:25;97511.11;;;4.63;86.52
73106;BME280;61559;50.476;15.588;2023-04-16T05:23:57;97506.52;;;4.70;86.69
73106;BME280;61559;50.476;15.588;2023-04-16T05:26:28;97510.69;;;4.77;86.79
73106;BME280;61559;50.476;15.588;2023-04-16T05:28:59;97514.72;;;4.84;86.76
73106;BME280;61559;50.476;15.588;2023-04-16T05:31:31;97514.19;;;4.91;86.70
73106;BME280;61559;50.476;15.588;2023-04-16T05:34:02;97516.17;;;4.99;86.69
73106;BME280;61559;50.476;15.588;2023-04-16T05:36:33;97513.81;;;5.05;86.51
73106;BME280;61559;50.476;15.588;2023-04-16T05:39:04;97514.92;;;5.11;86.36
73106;BME280;61559;50.476;15.588;2023-04-16T05:41:36;97513.70;;;5.16;86.20
73106;BME280;61559;50.476;15.588;2023-04-16T05:44:06;97516.90;;;5.22;86.38
73106;BME280;61559;50.476;15.588;2023-04-16T05:46:37;97521.19;;;5.27;86.40
73106;BME280;61559;50.476;15.588;2023-04-16T05:49:06;97520.14;;;5.35;86.36
73106;BME280;61559;50.476;15.588;2023-04-16T05:51:38;97522.36;;;5.43;86.22
73106;BME280;61559;50.476;15.588;2023-04-16T05:54:09;97525.13;;;5.52;86.05
73106;BME280;61559;50.476;15.588;2023-04-16T05:56:40;97522.77;;;5.62;86.03
73106;BME280;61559;50.476;15.588;2023-04-16T05:59:11;97524.94;;;5.73;85.77
73106;BME280;61559;50.476;15.588;2023-04-16T06:01:43;97525.50;;;5.82;85.49
73106;BME280;61559;50.476;15.588;2023-04-16T06:04:14;97530.42;;;5.90;85.22
73106;BME280;61559;50.476;15.588;2023-04-16T06:06:44;97533.31;;;5.98;85.37
73106;BME280;61559;50.476;15.588;2023-04-16T06:09:15;97532.75;;;6.04;85.28
73106;BME280;61559;50.476;15.588;2023-04-16T06:11:46;97534.90;;;6.15;85.31
73106;BME280;61559;50.476;15.588;2023-04-16T06:14:16;97536.92;;;6.23;85.24
73106;BME280;61559;50.476;15.588;2023-04-16T06:16:47;97541.88;;;6.29;85.27
73106;BME280;61559;50.476;15.588;2023-04-16T06:19:18;97541.86;;;6.38;85.11
73106;BME280;61559;50.476;15.588;2023-04-16T06:21:49;97544.62;;;6.45;84.92
73106;BME280;61559;50.476;15.588;2023-04-16T06:24:21;97538.18;;;6.51;84.68
73106;BME280;61559;50.476;15.588;2023-04-16T06:26:52;97546.23;;;6.61;84.77
73106;BME280;61559;50.476;15.588;2023-04-16T06:29:24;97549.77;;;6.67;84.80
73106;BME280;61559;50.476;15.588;2023-04-16T06:32:09;97548.51;;;6.73;84.62
73106;BME280;61559;50.476;15.588;2023-04-16T06:34:40;97551.39;;;6.82;84.60
73106;BME280;61559;50.476;15.588;2023-04-16T06:37:12;97552.33;;;6.87;84.51
73106;BME280;61559;50.476;15.588;2023-04-16T06:39:42;97549.67;;;6.96;84.42
73106;BME280;61559;50.476;15.588;2023-04-16T06:42:13;97551.22;;;7.04;84.30
73106;BME280;61559;50.476;15.588;2023-04-16T06:44:43;97555.23;;;7.12;84.27
73106;BME280;61559;50.476;15.588;2023-04-16T06:47:14;97557.81;;;7.17;84.35
73106;BME280;61559;50.476;15.588;2023-04-16T06:49:46;97560.35;;;7.24;84.20
73106;BME280;61559;50.476;15.588;2023-04-16T06:52:15;97563.73;;;7.31;83.97
73106;BME280;61559;50.476;15.588;2023-04-16T06:54:46;97565.91;;;7.38;84.15
73106;BME280;61559;50.476;15.588;2023-04-16T06:57:17;97563.96;;;7.47;83.85
73106;BME280;61559;50.476;15.588;2023-04-16T06:59:49;97572.08;;;7.57;83.69
73106;BME280;61559;50.476;15.588;2023-04-16T07:02:20;97572.28;;;7.65;83.64
73106;BME280;61559;50.476;15.588;2023-04-16T07:04:52;97572.17;;;7.74;83.77
73106;BME280;61559;50.476;15.588;2023-04-16T07:07:23;97575.50;;;7.81;83.86
73106;BME280;61559;50.476;15.588;2023-04-16T07:09:54;97576.21;;;7.87;83.58
73106;BME280;61559;50.476;15.588;2023-04-16T07:12:26;97580.58;;;7.92;83.49
73106;BME280;61559;50.476;15.588;2023-04-16T07:14:57;97580.83;;;7.95;83.19
73106;BME280;61559;50.476;15.588;2023-04-16T07:17:28;97583.89;;;8.03;83.02
73106;BME280;61559;50.476;15.588;2023-04-16T07:19:59;97585.78;;;8.12;82.95
73106;BME280;61559;50.476;15.588;2023-04-16T07:22:31;97587.28;;;8.21;82.70
73106;BME280;61559;50.476;15.588;2023-04-16T07:25:04;97584.55;;;8.29;82.58
73106;BME280;61559;50.476;15.588;2023-04-16T07:27:35;97586.67;;;8.37;82.46
73106;BME280;61559;50.476;15.588;2023-04-16T07:30:08;97585.01;;;8.43;82.16
73106;BME280;61559;50.476;15.588;2023-04-16T07:32:39;97589.22;;;8.48;81.89
73106;BME280;61559;50.476;15.588;2023-04-16T07:35:10;97589.66;;;8.51;81.59
73106;BME280;61559;50.476;15.588;2023-04-16T07:37:42;97593.66;;;8.56;81.41
73106;BME280;61559;50.476;15.588;2023-04-16T07:40:14;97596.30;;;8.62;81.22
73106;BME280;61559;50.476;15.588;2023-04-16T07:42:45;97599.40;;;8.67;81.19
73106;BME280;61559;50.476;15.588;2023-04-16T07:45:17;97601.23;;;8.73;81.27
73106;BME280;61559;50.476;15.588;2023-04-16T07:47:49;97600.90;;;8.78;81.27
73106;BME280;61559;50.476;15.588;2023-04-16T07:50:20;97600.86;;;8.84;81.28
73106;BME280;61559;50.476;15.588;2023-04-16T07:52:52;97604.72;;;8.89;81.03
73106;BME280;61559;50.476;15.588;2023-04-16T07:55:24;97604.33;;;8.92;80.70
73106;BME280;61559;50.476;15.588;2023-04-16T07:57:55;97602.77;;;8.95;80.51
73106;BME280;61559;50.476;15.588;2023-04-16T08:00:26;97604.02;;;8.99;80.17
73106;BME280;61559;50.476;15.588;2023-04-16T08:02:57;97600.61;;;9.02;79.88
73106;BME280;61559;50.476;15.588;2023-04-16T08:05:28;97604.37;;;9.03;79.59
73106;BME280;61559;50.476;15.588;2023-04-16T08:08:00;97599.17;;;9.00;78.50
73106;BME280;61559;50.476;15.588;2023-04-16T08:10:31;97604.27;;;8.94;78.28
73106;BME280;61559;50.476;15.588;2023-04-16T08:13:06;97609.73;;;8.92;78.08
73106;BME280;61559;50.476;15.588;2023-04-16T08:15:37;97611.45;;;8.88;77.76
73106;BME280;61559;50.476;15.588;2023-04-16T08:18:08;97608.21;;;8.82;77.70
73106;BME280;61559;50.476;15.588;2023-04-16T08:20:44;97613.98;;;8.81;77.92
73106;BME280;61559;50.476;15.588;2023-04-16T08:23:15;97614.89;;;8.83;78.23
73106;BME280;61559;50.476;15.588;2023-04-16T08:25:46;97616.38;;;8.84;77.90
73106;BME280;61559;50.476;15.588;2023-04-16T08:28:19;97619.38;;;8.83;77.58
73106;BME280;61559;50.476;15.588;2023-04-16T08:30:50;97618.85;;;8.86;77.69
73106;BME280;61559;50.476;15.588;2023-04-16T08:33:21;97626.77;;;8.86;77.26
73106;BME280;61559;50.476;15.588;2023-04-16T08:35:52;97628.99;;;8.85;77.00
73106;BME280;61559;50.476;15.588;2023-04-16T08:38:23;97631.27;;;8.86;77.15
73106;BME280;61559;50.476;15.588;2023-04-16T08:40:55;97636.38;;;8.90;76.94
73106;BME280;61559;50.476;15.588;2023-04-16T08:43:27;97641.23;;;8.96;76.94
73106;BME280;61559;50.476;15.588;2023-04-16T08:46:03;97642.13;;;9.04;76.56
73106;BME280;61559;50.476;15.588;2023-04-16T08:48:35;97644.27;;;9.13;76.55
73106;BME280;61559;50.476;15.588;2023-04-16T08:51:09;97643.65;;;9.25;76.92
73106;BME280;61559;50.476;15.588;2023-04-16T08:53:52;97643.03;;;9.38;76.96
73106;BME280;61559;50.476;15.588;2023-04-16T08:56:24;97643.38;;;9.55;77.07
73106;BME280;61559;50.476;15.588;2023-04-16T08:58:55;97643.42;;;9.73;76.62
73106;BME280;61559;50.476;15.588;2023-04-16T09:01:27;97644.70;;;9.91;75.83
73106;BME280;61559;50.476;15.588;2023-04-16T09:03:59;97645.61;;;10.11;75.47
73106;BME280;61559;50.476;15.588;2023-04-16T09:06:32;97647.60;;;10.30;75.06
73106;BME280;61559;50.476;15.588;2023-04-16T09:09:04;97646.48;;;10.46;74.57
73106;BME280;61559;50.476;15.588;2023-04-16T09:11:38;97647.02;;;10.59;73.42
73106;BME280;61559;50.476;15.588;2023-04-16T09:14:12;97648.33;;;10.72;72.56
73106;BME280;61559;50.476;15.588;2023-04-16T09:16:45;97649.53;;;10.83;71.86
73106;BME280;61559;50.476;15.588;2023-04-16T09:19:16;97650.71;;;10.95;71.56
73106;BME280;61559;50.476;15.588;2023-04-16T09:21:48;97650.70;;;11.09;70.91
73106;BME280;61559;50.476;15.588;2023-04-16T09:24:22;97651.48;;;11.19;69.92
73106;BME280;61559;50.476;15.588;2023-04-16T09:26:55;97649.80;;;11.31;70.26
73106;BME280;61559;50.476;15.588;2023-04-16T09:29:43;97651.75;;;11.40;68.88
73106;BME280;61559;50.476;15.588;2023-04-16T09:32:25;97649.96;;;11.53;69.15
73106;BME280;61559;50.476;15.588;2023-04-16T09:34:58;97647.23;;;11.64;66.72
73106;BME280;61559;50.476;15.588;2023-04-16T09:37:30;97651.17;;;11.74;66.06
73106;BME280;61559;50.476;15.588;2023-04-16T09:40:02;97655.97;;;11.89;66.50
73106;BME280;61559;50.476;15.588;2023-04-16T09:42:35;97659.66;;;12.04;66.27
73106;BME280;61559;50.476;15.588;2023-04-16T09:45:08;97655.34;;;12.13;65.78
73106;BME280;61559;50.476;15.588;2023-04-16T09:47:44;97654.27;;;12.22;65.01
73106;BME280;61559;50.476;15.588;2023-04-16T09:50:17;97653.81;;;12.26;63.06
73106;BME280;61559;50.476;15.588;2023-04-16T09:52:50;97654.30;;;12.23;62.46
73106;BME280;61559;50.476;15.588;2023-04-16T09:55:27;97655.84;;;12.23;62.66
73106;BME280;61559;50.476;15.588;2023-04-16T09:58:01;97658.72;;;12.29;63.36
73106;BME280;61559;50.476;15.588;2023-04-16T10:00:32;97655.17;;;12.33;61.41
73106;BME280;61559;50.476;15.588;2023-04-16T10:03:11;97658.31;;;12.36;61.83
73106;BME280;61559;50.476;15.588;2023-04-16T10:05:43;97655.39;;;12.42;62.00
73106;BME280;61559;50.476;15.588;2023-04-16T10:08:15;97657.63;;;12.50;61.73
73106;BME280;61559;50.476;15.588;2023-04-16T10:10:47;97657.58;;;12.48;61.21
73106;BME280;61559;50.476;15.588;2023-04-16T10:13:18;97658.58;;;12.49;61.91
73106;BME280;61559;50.476;15.588;2023-04-16T10:15:50;97657.73;;;12.58;61.57
73106;BME280;61559;50.476;15.588;2023-04-16T10:18:21;97656.39;;;12.66;61.12
73106;BME280;61559;50.476;15.588;2023-04-16T10:20:53;97659.97;;;12.71;62.35
73106;BME280;61559;50.476;15.588;2023-04-16T10:23:25;97657.20;;;12.72;62.97
73106;BME280;61559;50.476;15.588;2023-04-16T10:25:57;97655.60;;;12.75;62.99
73106;BME280;61559;50.476;15.588;2023-04-16T10:28:28;97655.84;;;12.84;63.65
73106;BME280;61559;50.476;15.588;2023-04-16T10:31:01;97654.95;;;12.95;64.33
73106;BME280;61559;50.476;15.588;2023-04-16T10:33:34;97653.71;;;13.05;63.07
73106;BME280;61559;50.476;15.588;2023-04-16T10:36:11;97659.04;;;13.17;63.83
73106;BME280;61559;50.476;15.588;2023-04-16T10:38:47;97657.00;;;13.34;63.40
73106;BME280;61559;50.476;15.588;2023-04-16T10:41:20;97652.48;;;13.45;62.97
73106;BME280;61559;50.476;15.588;2023-04-16T10:43:51;97654.81;;;13.52;62.14
73106;BME280;61559;50.476;15.588;2023-04-16T10:46:24;97652.98;;;13.60;61.78
73106;BME280;61559;50.476;15.588;2023-04-16T10:48:58;97652.23;;;13.64;60.76
73106;BME280;61559;50.476;15.588;2023-04-16T10:51:32;97652.61;;;13.69;60.80
73106;BME280;61559;50.476;15.588;2023-04-16T10:54:18;97653.52;;;13.75;61.12
73106;BME280;61559;50.476;15.588;2023-04-16T10:56:51;97657.90;;;13.85;61.71
73106;BME280;61559;50.476;15.588;2023-04-16T10:59:23;97657.48;;;13.91;61.23
73106;BME280;61559;50.476;15.588;2023-04-16T11:01:57;97655.91;;;13.95;60.70
73106;BME280;61559;50.476;15.588;2023-04-16T11:04:34;97652.56;;;13.97;59.40
73106;BME280;61559;50.476;15.588;2023-04-16T11:07:13;97651.59;;;13.95;58.92
73106;BME280;61559;50.476;15.588;2023-04-16T11:09:52;97650.77;;;13.94;59.47
73106;BME280;61559;50.476;15.588;2023-04-16T11:12:25;97648.77;;;13.92;59.22
73106;BME280;61559;50.476;15.588;2023-04-16T11:15:02;97651.45;;;13.90;58.60
73106;BME280;61559;50.476;15.588;2023-04-16T11:17:37;97653.86;;;13.84;57.87
73106;BME280;61559;50.476;15.588;2023-04-16T11:20:14;97650.03;;;13.76;58.24
73106;BME280;61559;50.476;15.588;2023-04-16T11:22:50;97651.89;;;13.79;59.34
73106;BME280;61559;50.476;15.588;2023-04-16T11:25:22;97655.41;;;13.89;60.66
73106;BME280;61559;50.476;15.588;2023-04-16T11:27:54;97658.52;;;14.03;60.20
73106;BME280;61559;50.476;15.588;2023-04-16T11:30:30;97663.91;;;14.18;59.49
73106;BME280;61559;50.476;15.588;2023-04-16T11:33:04;97661.36;;;14.32;58.91
73106;BME280;61559;50.476;15.588;2023-04-16T11:35:35;97659.86;;;14.43;57.65
73106;BME280;61559;50.476;15.588;2023-04-16T11:38:08;97659.16;;;14.55;57.82
73106;BME280;61559;50.476;15.588;2023-04-16T11:40:39;97660.10;;;14.59;56.09
73106;BME280;61559;50.476;15.588;2023-04-16T11:43:15;97665.86;;;14.59;55.93
73106;BME280;61559;50.476;15.588;2023-04-16T11:45:57;97667.04;;;14.56;57.00
73106;BME280;61559;50.476;15.588;2023-04-16T11:48:46;97672.73;;;14.55;57.34
73106;BME280;61559;50.476;15.588;2023-04-16T11:51:18;97669.62;;;14.55;57.47
73106;BME280;61559;50.476;15.588;2023-04-16T11:53:51;97669.92;;;14.53;55.78
73106;BME280;61559;50.476;15.588;2023-04-16T11:56:31;97668.66;;;14.47;55.86
73106;BME280;61559;50.476;15.588;2023-04-16T11:59:10;97668.71;;;14.42;56.34
73106;BME280;61559;50.476;15.588;2023-04-16T12:01:46;97669.53;;;14.35;56.23
73106;BME280;61559;50.476;15.588;2023-04-16T12:04:20;97669.15;;;14.25;54.98
73106;BME280;61559;50.476;15.588;2023-04-16T12:07:14;97670.45;;;14.11;55.85
73106;BME280;61559;50.476;15.588;2023-04-16T12:09:48;97672.93;;;14.03;56.55
73106;BME280;61559;50.476;15.588;2023-04-16T12:12:30;97672.80;;;14.03;57.05
73106;BME280;61559;50.476;15.588;2023-04-16T12:15:02;97673.52;;;14.05;56.11
73106;BME280;61559;50.476;15.588;2023-04-16T12:17:34;97672.35;;;14.08;56.67
73106;BME280;61559;50.476;15.588;2023-04-16T12:20:09;97670.53;;;14.14;55.55
73106;BME280;61559;50.476;15.588;2023-04-16T12:22:45;97670.29;;;14.19;54.95
73106;BME280;61559;50.476;15.588;2023-04-16T12:25:18;97674.12;;;14.25;54.29
73106;BME280;61559;50.476;15.588;2023-04-16T12:27:50;97674.52;;;14.29;53.57
73106;BME280;61559;50.476;15.588;2023-04-16T12:30:23;97672.30;;;14.33;53.85
73106;BME280;61559;50.476;15.588;2023-04-16T12:33:14;97668.66;;;14.38;52.87
73106;BME280;61559;50.476;15.588;2023-04-16T12:35:46;97671.81;;;14.41;52.39
73106;BME280;61559;50.476;15.588;2023-04-16T12:38:17;97666.91;;;14.46;52.65
73106;BME280;61559;50.476;15.588;2023-04-16T12:40:51;97669.35;;;14.56;52.85
73106;BME280;61559;50.476;15.588;2023-04-16T12:43:25;97665.66;;;14.67;53.22
73106;BME280;61559;50.476;15.588;2023-04-16T12:45:57;97664.39;;;14.78;52.04
73106;BME280;61559;50.476;15.588;2023-04-16T12:48:30;97658.77;;;14.87;52.11
73106;BME280;61559;50.476;15.588;2023-04-16T12:51:02;97655.34;;;14.89;50.51
73106;BME280;61559;50.476;15.588;2023-04-16T12:53:33;97657.38;;;14.79;49.73
73106;BME280;61559;50.476;15.588;2023-04-16T12:56:05;97658.06;;;14.71;49.79
73106;BME280;61559;50.476;15.588;2023-04-16T12:58:37;97660.41;;;14.67;49.66
73106;BME280;61559;50.476;15.588;2023-04-16T13:01:08;97659.85;;;14.71;51.60
73106;BME280;61559;50.476;15.588;2023-04-16T13:03:40;97660.58;;;14.80;51.17
73106;BME280;61559;50.476;15.588;2023-04-16T13:06:12;97658.08;;;14.91;51.31
73106;BME280;61559;50.476;15.588;2023-04-16T13:08:44;97658.11;;;15.01;50.28
73106;BME280;61559;50.476;15.588;2023-04-16T13:11:16;97658.89;;;15.05;50.25
73106;BME280;61559;50.476;15.588;2023-04-16T13:13:47;97656.02;;;15.12;49.74
73106;BME280;61559;50.476;15.588;2023-04-16T13:16:18;97656.82;;;15.17;49.43
73106;BME280;61559;50.476;15.588;2023-04-16T13:18:50;97660.67;;;15.23;49.33
73106;BME280;61559;50.476;15.588;2023-04-16T13:21:21;97660.73;;;15.33;50.71
73106;BME280;61559;50.476;15.588;2023-04-16T13:23:52;97658.98;;;15.44;48.50